sensor_id;sensor_type;location;lat;lon;timestamp;P1;durP1;ratioP1;P2;durP2;ratioP2
35223;SDS011;21367;51.930;8.112;2023-04-29T13:53:57;23.92;;;8.80;;
35223;SDS011;21367;51.930;8.112;2023-04-29T13:59:00;19.38;;;9.20;;
35223;SDS011;21367;51.930;8.112;2023-04-29T14:04:04;18.17;;;9.23;;
35223;SDS011;21367;51.930;8.112;2023-04-29T14:09:11;15.57;;;8.90;;
35223;SDS011;21367;51.930;8.112;2023-04-29T14:14:15;21.40;;;10.30;;
35223;SDS011;21367;51.930;8.112;2023-04-29T14:19:19;14.45;;;8.07;;
35223;SDS011;21367;51.930;8.112;2023-04-29T14:24:25;15.60;;;6.75;;
35223;SDS011;21367;51.930;8.112;2023-04-29T14:29:30;17.65;;;7.15;;
35223;SDS011;21367;51.930;8.112;2023-04-29T14:34:34;15.38;;;7.00;;
35223;SDS011;21367;51.930;8.112;2023-04-29T14:39:40;12.15;;;6.38;;
35223;SDS011;21367;51.930;8.112;2023-04-29T14:44:44;9.70;;;4.47;;
35223;SDS011;21367;51.930;8.112;2023-04-29T14:49:47;7.45;;;4.80;;
35223;SDS011;21367;51.930;8.112;2023-04-29T14:54:54;12.73;;;5.90;;
35223;SDS011;21367;51.930;8.112;2023-04-29T14:59:57;13.85;;;6.60;;
35223;SDS011;21367;51.930;8.112;2023-04-29T15:05:01;12.50;;;5.63;;
35223;SDS011;21367;51.930;8.112;2023-04-29T15:10:08;13.45;;;6.70;;
35223;SDS011;21367;51.930;8.112;2023-04-29T15:15:12;19.20;;;6.43;;
35223;SDS011;21367;51.930;8.112;2023-04-29T15:20:16;17.17;;;6.07;;
35223;SDS011;21367;51.930;8.112;2023-04-29T15:25:22;10.90;;;5.72;;
35223;SDS011;21367;51.930;8.112;2023-04-29T15:30:26;12.52;;;6.25;;
35223;SDS011;21367;51.930;8.112;2023-04-29T15:35:30;14.68;;;5.05;;
35223;SDS011;21367;51.930;8.112;2023-04-29T15:40:38;10.68;;;5.38;;
35223;SDS011;21367;51.930;8.112;2023-04-29T15:50:47;13.25;;;6.28;;
35223;SDS011;21367;51.930;8.112;2023-04-29T15:55:55;10.68;;;5.53;;
35223;SDS011;21367;51.930;8.112;2023-04-29T16:00:59;12.48;;;5.55;;
35223;SDS011;21367;51.930;8.112;2023-04-29T16:06:03;7.65;;;4.75;;
35223;SDS011;21367;51.930;8.112;2023-04-29T16:11:10;12.10;;;5.47;;
35223;SDS011;21367;51.930;8.112;2023-04-29T16:16:14;8.35;;;4.88;;
35223;SDS011;21367;51.930;8.112;2023-04-29T16:21:18;10.40;;;5.05;;
35223;SDS011;21367;51.930;8.112;2023-04-29T16:26:24;13.43;;;5.25;;
35223;SDS011;21367;51.930;8.112;2023-04-29T16:31:28;11.57;;;5.43;;
35223;SDS011;21367;51.930;8.112;2023-04-29T16:36:32;12.70;;;5.20;;
35223;SDS011;21367;51.930;8.112;2023-04-29T16:41:39;8.65;;;4.88;;
35223;SDS011;21367;51.930;8.112;2023-04-29T16:51:47;8.27;;;4.97;;
35223;SDS011;21367;51.930;8.112;2023-04-29T16:56:53;10.15;;;4.78;;
35223;SDS011;21367;51.930;8.112;2023-04-29T17:01:57;12.40;;;4.15;;
35223;SDS011;21367;51.930;8.112;2023-04-29T17:07:02;21.85;;;7.20;;
35223;SDS011;21367;51.930;8.112;2023-04-29T17:12:08;15.75;;;6.80;;
35223;SDS011;21367;51.930;8.112;2023-04-29T17:17:12;18.70;;;6.57;;
35223;SDS011;21367;51.930;8.112;2023-04-29T17:22:15;10.27;;;5.63;;
35223;SDS011;21367;51.930;8.112;2023-04-29T17:27:22;13.27;;;5.72;;
35223;SDS011;21367;51.930;8.112;2023-04-29T17:32:26;12.45;;;4.72;;
35223;SDS011;21367;51.930;8.112;2023-04-29T17:37:30;10.80;;;5.95;;
35223;SDS011;21367;51.930;8.112;2023-04-29T17:42:36;12.30;;;5.60;;
35223;SDS011;21367;51.930;8.112;2023-04-29T17:47:40;12.90;;;5.28;;
35223;SDS011;21367;51.930;8.112;2023-04-29T17:52:44;9.98;;;5.18;;
35223;SDS011;21367;51.930;8.112;2023-04-29T18:02:57;12.75;;;5.13;;
35223;SDS011;21367;51.930;8.112;2023-04-29T18:08:04;7.55;;;4.70;;
35223;SDS011;21367;51.930;8.112;2023-04-29T18:13:18;20.38;;;5.25;;
35223;SDS011;21367;51.930;8.112;2023-04-29T18:18:22;13.48;;;5.18;;
35223;SDS011;21367;51.930;8.112;2023-04-29T18:23:26;14.45;;;5.30;;
35223;SDS011;21367;51.930;8.112;2023-04-29T18:28:32;9.73;;;4.85;;
35223;SDS011;21367;51.930;8.112;2023-04-29T18:33:39;11.98;;;5.43;;
35223;SDS011;21367;51.930;8.112;2023-04-29T18:38:45;13.32;;;5.65;;
35223;SDS011;21367;51.930;8.112;2023-04-29T18:43:52;9.00;;;5.43;;
35223;SDS011;21367;51.930;8.112;2023-04-29T18:48:56;13.73;;;5.90;;
35223;SDS011;21367;51.930;8.112;2023-04-29T18:53:59;15.65;;;6.35;;
35223;SDS011;21367;51.930;8.112;2023-04-29T18:59:06;25.17;;;8.27;;
35223;SDS011;21367;51.930;8.112;2023-04-29T19:04:13;25.27;;;8.00;;
35223;SDS011;21367;51.930;8.112;2023-04-29T19:09:17;30.48;;;9.18;;
35223;SDS011;21367;51.930;8.112;2023-04-29T19:14:24;12.85;;;5.93;;
35223;SDS011;21367;51.930;8.112;2023-04-29T19:19:35;17.83;;;6.35;;
35223;SDS011;21367;51.930;8.112;2023-04-29T19:24:39;14.00;;;5.20;;
35223;SDS011;21367;51.930;8.112;2023-04-29T19:29:45;12.85;;;5.28;;
35223;SDS011;21367;51.930;8.112;2023-04-29T19:39:52;10.48;;;4.70;;
35223;SDS011;21367;51.930;8.112;2023-04-29T19:45:04;11.05;;;4.72;;
35223;SDS011;21367;51.930;8.112;2023-04-29T19:50:11;11.95;;;5.00;;
35223;SDS011;21367;51.930;8.112;2023-04-29T19:55:15;17.00;;;5.53;;
35223;SDS011;21367;51.930;8.112;2023-04-29T20:00:22;12.95;;;5.47;;
35223;SDS011;21367;51.930;8.112;2023-04-29T20:05:26;15.23;;;5.30;;
35223;SDS011;21367;51.930;8.112;2023-04-29T20:10:30;11.70;;;4.53;;
35223;SDS011;21367;51.930;8.112;2023-04-29T20:15:36;11.95;;;5.38;;
35223;SDS011;21367;51.930;8.112;2023-04-29T20:20:40;25.83;;;5.13;;
35223;SDS011;21367;51.930;8.112;2023-04-29T20:25:44;11.20;;;4.63;;
35223;SDS011;21367;51.930;8.112;2023-04-29T20:30:51;13.25;;;4.60;;
35223;SDS011;21367;51.930;8.112;2023-04-29T20:35:55;10.63;;;4.93;;
35223;SDS011;21367;51.930;8.112;2023-04-29T20:41:04;12.15;;;5.35;;
35223;SDS011;21367;51.930;8.112;2023-04-29T20:46:12;15.93;;;5.47;;
35223;SDS011;21367;51.930;8.112;2023-04-29T20:51:16;9.77;;;4.38;;
35223;SDS011;21367;51.930;8.112;2023-04-29T20:56:20;10.32;;;4.55;;
35223;SDS011;21367;51.930;8.112;2023-04-29T21:01:28;11.88;;;4.55;;
35223;SDS011;21367;51.930;8.112;2023-04-29T21:06:32;12.43;;;4.65;;
35223;SDS011;21367;51.930;8.112;2023-04-29T21:11:35;18.30;;;5.45;;
35223;SDS011;21367;51.930;8.112;2023-04-29T21:16:42;11.60;;;5.47;;
35223;SDS011;21367;51.930;8.112;2023-04-29T21:26:49;12.65;;;5.35;;
35223;SDS011;21367;51.930;8.112;2023-04-29T21:31:55;12.75;;;4.63;;
35223;SDS011;21367;51.930;8.112;2023-04-29T21:42:02;11.43;;;5.18;;
35223;SDS011;21367;51.930;8.112;2023-04-29T21:47:09;12.80;;;5.50;;
35223;SDS011;21367;51.930;8.112;2023-04-29T21:57:16;16.08;;;6.60;;
35223;SDS011;21367;51.930;8.112;2023-04-29T22:02:22;16.83;;;5.85;;
35223;SDS011;21367;51.930;8.112;2023-04-29T22:07:27;11.07;;;6.28;;
35223;SDS011;21367;51.930;8.112;2023-04-29T22:12:30;15.02;;;6.15;;
35223;SDS011;21367;51.930;8.112;2023-04-29T22:17:37;11.70;;;5.80;;
35223;SDS011;21367;51.930;8.112;2023-04-29T22:22:40;9.35;;;5.55;;
35223;SDS011;21367;51.930;8.112;2023-04-29T22:27:50;15.73;;;6.28;;
35223;SDS011;21367;51.930;8.112;2023-04-29T22:32:59;9.77;;;5.60;;
35223;SDS011;21367;51.930;8.112;2023-04-29T22:38:04;11.60;;;5.68;;
35223;SDS011;21367;51.930;8.112;2023-04-29T22:43:08;9.95;;;5.82;;
35223;SDS011;21367;51.930;8.112;2023-04-29T22:48:15;16.15;;;5.93;;
35223;SDS011;21367;51.930;8.112;2023-04-29T22:53:22;15.57;;;6.18;;
35223;SDS011;21367;51.930;8.112;2023-04-29T22:58:29;8.90;;;5.97;;
35223;SDS011;21367;51.930;8.112;2023-04-29T23:03:35;11.73;;;5.55;;
35223;SDS011;21367;51.930;8.112;2023-04-29T23:08:39;12.40;;;6.40;;
35223;SDS011;21367;51.930;8.112;2023-04-29T23:13:44;12.52;;;6.28;;
35223;SDS011;21367;51.930;8.112;2023-04-29T23:18:50;15.45;;;5.82;;
35223;SDS011;21367;51.930;8.112;2023-04-29T23:28:57;10.98;;;5.85;;
35223;SDS011;21367;51.930;8.112;2023-04-29T23:34:05;12.93;;;6.32;;
35223;SDS011;21367;51.930;8.112;2023-04-29T23:39:11;12.27;;;6.43;;
35223;SDS011;21367;51.930;8.112;2023-04-29T23:44:17;14.23;;;6.40;;
35223;SDS011;21367;51.930;8.112;2023-04-29T23:49:23;16.27;;;6.75;;
35223;SDS011;21367;51.930;8.112;2023-04-29T23:54:28;11.30;;;5.97;;
35223;SDS011;21367;51.930;8.112;2023-04-29T23:59:31;13.25;;;6.40;;
